AFL2182 UIBB-UIII
Flight info
| Callsign | AFL2182 |
|---|---|
| Flight time | 0h 44m |
| Altitude | 37000 |
| Route | LIDKA6D LIDKA G490 NH NH5A |
| Aircraft | A320/M-SDE3FGHIRWY/LB1 |
Departure
| Time | 2026-05-07 10:59 |
|---|---|
| Airport | Bratsk Airport (UIBB) |
Arrival
| Time | 2026-05-07 11:43 |
|---|---|
| Airport | Irkutsk International Airport (UIII) |
| Time | Latitude | Longitude | Altitude | Speed | Heading |
|---|---|---|---|---|---|
| 2026-05-07 10:47 | 56.36543 | 101.70463 | 1611 ft | 0 kts | 295° |
| 2026-05-07 10:55 | 56.36544 | 101.70458 | 1611 ft | 4 kts | 295° |
| 2026-05-07 10:55 | 56.36568 | 101.70421 | 1617 ft | 4 kts | 339° |
| 2026-05-07 10:55 | 56.36646 | 101.70472 | 1614 ft | 26 kts | 24° |
| 2026-05-07 10:55 | 56.36747 | 101.70556 | 1614 ft | 0 kts | 25° |
| 2026-05-07 10:56 | 56.36775 | 101.70581 | 1613 ft | 9 kts | 25° |
| 2026-05-07 10:56 | 56.36835 | 101.70649 | 1614 ft | 10 kts | 57° |
| 2026-05-07 10:57 | 56.36823 | 101.70765 | 1612 ft | 12 kts | 115° |
| 2026-05-07 10:57 | 56.36769 | 101.70979 | 1616 ft | 23 kts | 115° |
| 2026-05-07 10:57 | 56.36697 | 101.71255 | 1614 ft | 25 kts | 118° |
| 2026-05-07 10:57 | 56.36631 | 101.71437 | 1613 ft | 6 kts | 83° |
| 2026-05-07 10:58 | 56.36642 | 101.71427 | 1618 ft | 3 kts | 309° |
| 2026-05-07 10:58 | 56.36659 | 101.71393 | 1610 ft | 6 kts | 298° |
| 2026-05-07 10:58 | 56.36660 | 101.71390 | 1610 ft | 0 kts | 297° |
| 2026-05-07 10:58 | 56.36666 | 101.71368 | 1616 ft | 20 kts | 296° |
| 2026-05-07 10:59 | 56.36871 | 101.70577 | 1615 ft | 116 kts | 294° |
| 2026-05-07 10:59 | 56.37320 | 101.68856 | 1666 ft | 181 kts | 296° |
| 2026-05-07 10:59 | 56.37849 | 101.66735 | 2586 ft | 185 kts | 293° |
| 2026-05-07 10:59 | 56.38384 | 101.64591 | 3427 ft | 194 kts | 293° |
| 2026-05-07 11:00 | 56.38984 | 101.62248 | 3782 ft | 217 kts | 294° |
| 2026-05-07 11:00 | 56.39662 | 101.59633 | 4255 ft | 242 kts | 294° |
| 2026-05-07 11:00 | 56.40361 | 101.56723 | 4915 ft | 260 kts | 285° |
| 2026-05-07 11:00 | 56.40439 | 101.53447 | 5835 ft | 266 kts | 260° |
| 2026-05-07 11:01 | 56.39791 | 101.50329 | 6822 ft | 270 kts | 236° |
| 2026-05-07 11:01 | 56.38426 | 101.48003 | 7770 ft | 275 kts | 210° |
| 2026-05-07 11:01 | 56.36579 | 101.47050 | 8718 ft | 283 kts | 182° |
| 2026-05-07 11:01 | 56.34641 | 101.47772 | 9661 ft | 291 kts | 155° |
| 2026-05-07 11:02 | 56.32848 | 101.49611 | 10300 ft | 307 kts | 150° |
| 2026-05-07 11:02 | 56.30965 | 101.51620 | 10652 ft | 331 kts | 150° |
| 2026-05-07 11:02 | 56.28914 | 101.53813 | 10935 ft | 354 kts | 151° |
| 2026-05-07 11:02 | 56.26736 | 101.56129 | 11376 ft | 370 kts | 151° |
| 2026-05-07 11:03 | 56.24496 | 101.58501 | 12108 ft | 376 kts | 151° |
| 2026-05-07 11:03 | 56.22226 | 101.60891 | 12894 ft | 381 kts | 151° |
| 2026-05-07 11:03 | 56.19920 | 101.63305 | 13666 ft | 386 kts | 151° |
| 2026-05-07 11:03 | 56.17588 | 101.65732 | 14356 ft | 390 kts | 151° |
| 2026-05-07 11:04 | 56.15228 | 101.68190 | 15033 ft | 394 kts | 151° |
| 2026-05-07 11:04 | 56.12844 | 101.70671 | 15704 ft | 398 kts | 151° |
| 2026-05-07 11:04 | 56.10442 | 101.73168 | 16352 ft | 402 kts | 152° |
| 2026-05-07 11:04 | 56.08013 | 101.75691 | 17001 ft | 406 kts | 152° |
| 2026-05-07 11:05 | 56.05558 | 101.78236 | 17634 ft | 410 kts | 152° |
| 2026-05-07 11:05 | 56.03080 | 101.80806 | 18256 ft | 413 kts | 152° |
| 2026-05-07 11:05 | 56.00584 | 101.83395 | 18803 ft | 417 kts | 152° |
| 2026-05-07 11:05 | 55.98065 | 101.85998 | 19355 ft | 419 kts | 152° |
| 2026-05-07 11:06 | 55.95529 | 101.88612 | 19917 ft | 422 kts | 152° |
| 2026-05-07 11:06 | 55.92976 | 101.91231 | 20480 ft | 424 kts | 152° |
| 2026-05-07 11:06 | 55.90406 | 101.93862 | 21012 ft | 427 kts | 152° |
| 2026-05-07 11:06 | 55.87819 | 101.96511 | 21507 ft | 431 kts | 152° |
| 2026-05-07 11:07 | 55.85210 | 101.99188 | 22014 ft | 434 kts | 152° |
| 2026-05-07 11:07 | 55.82585 | 102.01882 | 22524 ft | 437 kts | 153° |
| 2026-05-07 11:07 | 55.79937 | 102.04591 | 23020 ft | 440 kts | 153° |
| 2026-05-07 11:07 | 55.77273 | 102.07308 | 23485 ft | 443 kts | 153° |
| 2026-05-07 11:08 | 55.74589 | 102.10042 | 23895 ft | 446 kts | 153° |
| 2026-05-07 11:08 | 55.71891 | 102.12786 | 24314 ft | 448 kts | 153° |
| 2026-05-07 11:08 | 55.69179 | 102.15537 | 24736 ft | 450 kts | 153° |
| 2026-05-07 11:08 | 55.66456 | 102.18291 | 25148 ft | 452 kts | 153° |
| 2026-05-07 11:09 | 55.63720 | 102.21053 | 25560 ft | 453 kts | 153° |
| 2026-05-07 11:09 | 55.60978 | 102.23821 | 25940 ft | 455 kts | 153° |
| 2026-05-07 11:09 | 55.58219 | 102.26605 | 26309 ft | 457 kts | 153° |
| 2026-05-07 11:09 | 55.55446 | 102.29399 | 26672 ft | 459 kts | 153° |
| 2026-05-07 11:10 | 55.52703 | 102.32157 | 27030 ft | 461 kts | 153° |
| 2026-05-07 11:10 | 55.49903 | 102.34960 | 27322 ft | 465 kts | 153° |
| 2026-05-07 11:10 | 55.47076 | 102.37785 | 27587 ft | 468 kts | 154° |
| 2026-05-07 11:10 | 55.44140 | 102.40254 | 27905 ft | 468 kts | 160° |
| 2026-05-07 11:11 | 55.41128 | 102.42489 | 28232 ft | 470 kts | 160° |
| 2026-05-07 11:11 | 55.38109 | 102.44736 | 28628 ft | 470 kts | 160° |
| 2026-05-07 11:11 | 55.35104 | 102.46981 | 29144 ft | 468 kts | 160° |
| 2026-05-07 11:11 | 55.32111 | 102.49217 | 29656 ft | 466 kts | 160° |
| 2026-05-07 11:12 | 55.29130 | 102.51437 | 30131 ft | 464 kts | 160° |
| 2026-05-07 11:12 | 55.26165 | 102.53642 | 30529 ft | 463 kts | 160° |
| 2026-05-07 11:12 | 55.23200 | 102.55843 | 30917 ft | 462 kts | 160° |
| 2026-05-07 11:12 | 55.20241 | 102.58032 | 31306 ft | 462 kts | 160° |
| 2026-05-07 11:13 | 55.17285 | 102.60213 | 31685 ft | 461 kts | 160° |
| 2026-05-07 11:13 | 55.14331 | 102.62386 | 32074 ft | 460 kts | 160° |
| 2026-05-07 11:13 | 55.11374 | 102.64560 | 32461 ft | 459 kts | 160° |
| 2026-05-07 11:13 | 55.08434 | 102.66716 | 32881 ft | 458 kts | 160° |
| 2026-05-07 11:14 | 55.05500 | 102.68864 | 33262 ft | 458 kts | 160° |
| 2026-05-07 11:14 | 55.02596 | 102.70980 | 33553 ft | 459 kts | 160° |
| 2026-05-07 11:14 | 54.99645 | 102.73128 | 33897 ft | 460 kts | 160° |
| 2026-05-07 11:14 | 54.96699 | 102.75280 | 34199 ft | 460 kts | 160° |
| 2026-05-07 11:15 | 54.93744 | 102.77435 | 34490 ft | 461 kts | 160° |
| 2026-05-07 11:15 | 54.90784 | 102.79584 | 34769 ft | 461 kts | 160° |
| 2026-05-07 11:15 | 54.87816 | 102.81734 | 35033 ft | 463 kts | 160° |
| 2026-05-07 11:15 | 54.84844 | 102.83886 | 35296 ft | 463 kts | 160° |
| 2026-05-07 11:16 | 54.81866 | 102.86046 | 35555 ft | 464 kts | 160° |
| 2026-05-07 11:16 | 54.78881 | 102.88204 | 35812 ft | 465 kts | 160° |
| 2026-05-07 11:16 | 54.75890 | 102.90358 | 36050 ft | 466 kts | 160° |
| 2026-05-07 11:16 | 54.72893 | 102.92516 | 36287 ft | 467 kts | 160° |
| 2026-05-07 11:17 | 54.69893 | 102.94673 | 36511 ft | 468 kts | 160° |
| 2026-05-07 11:17 | 54.66879 | 102.96836 | 36755 ft | 469 kts | 160° |
| 2026-05-07 11:17 | 54.63863 | 102.98996 | 36903 ft | 470 kts | 160° |
| 2026-05-07 11:17 | 54.60840 | 103.01154 | 36929 ft | 471 kts | 160° |
| 2026-05-07 11:18 | 54.54772 | 103.05489 | 36921 ft | 472 kts | 160° |
| 2026-05-07 11:18 | 54.48701 | 103.09820 | 36928 ft | 472 kts | 160° |
| 2026-05-07 11:19 | 54.42626 | 103.14130 | 36925 ft | 473 kts | 160° |
| 2026-05-07 11:19 | 54.36541 | 103.18419 | 36929 ft | 473 kts | 160° |
| 2026-05-07 11:20 | 54.30488 | 103.22677 | 36936 ft | 473 kts | 160° |
| 2026-05-07 11:20 | 54.24409 | 103.27011 | 36926 ft | 473 kts | 160° |
| 2026-05-07 11:21 | 54.18344 | 103.31387 | 36931 ft | 473 kts | 160° |
| 2026-05-07 11:21 | 54.12265 | 103.35748 | 36935 ft | 474 kts | 160° |
| 2026-05-07 11:22 | 54.06166 | 103.40089 | 36936 ft | 475 kts | 160° |
| 2026-05-07 11:22 | 54.00067 | 103.44408 | 36936 ft | 475 kts | 160° |
| 2026-05-07 11:23 | 53.93969 | 103.48712 | 36923 ft | 475 kts | 160° |
| 2026-05-07 11:23 | 53.87903 | 103.52971 | 36934 ft | 475 kts | 160° |
| 2026-05-07 11:24 | 53.81800 | 103.57259 | 36935 ft | 475 kts | 160° |
| 2026-05-07 11:24 | 53.75697 | 103.61547 | 36935 ft | 475 kts | 160° |
| 2026-05-07 11:25 | 53.69581 | 103.65818 | 36937 ft | 475 kts | 160° |
| 2026-05-07 11:25 | 53.66522 | 103.67948 | 36641 ft | 476 kts | 160° |
| 2026-05-07 11:25 | 53.63422 | 103.70095 | 35474 ft | 486 kts | 161° |
| 2026-05-07 11:26 | 53.60321 | 103.72239 | 34660 ft | 477 kts | 161° |
| 2026-05-07 11:26 | 53.57263 | 103.74357 | 33522 ft | 473 kts | 161° |
| 2026-05-07 11:26 | 53.54259 | 103.76443 | 32504 ft | 462 kts | 161° |
| 2026-05-07 11:26 | 53.51311 | 103.78486 | 31432 ft | 455 kts | 161° |
| 2026-05-07 11:27 | 53.48404 | 103.80492 | 30416 ft | 448 kts | 160° |
| 2026-05-07 11:27 | 53.45561 | 103.82445 | 29232 ft | 448 kts | 160° |
| 2026-05-07 11:27 | 53.42666 | 103.84427 | 27997 ft | 451 kts | 160° |
| 2026-05-07 11:27 | 53.39754 | 103.86420 | 26817 ft | 454 kts | 160° |
| 2026-05-07 11:28 | 53.36866 | 103.88703 | 25592 ft | 464 kts | 153° |
| 2026-05-07 11:28 | 53.34029 | 103.91379 | 24381 ft | 471 kts | 152° |
| 2026-05-07 11:28 | 53.31160 | 103.94080 | 23148 ft | 475 kts | 152° |
| 2026-05-07 11:28 | 53.28265 | 103.96796 | 21899 ft | 478 kts | 152° |
| 2026-05-07 11:29 | 53.25373 | 103.99503 | 21008 ft | 474 kts | 152° |
| 2026-05-07 11:29 | 53.22502 | 104.02186 | 20087 ft | 472 kts | 152° |
| 2026-05-07 11:29 | 53.19644 | 104.04850 | 19170 ft | 470 kts | 152° |
| 2026-05-07 11:29 | 53.16788 | 104.07506 | 18285 ft | 469 kts | 152° |
| 2026-05-07 11:30 | 53.13947 | 104.10137 | 17331 ft | 466 kts | 152° |
| 2026-05-07 11:30 | 53.11130 | 104.12746 | 16504 ft | 461 kts | 152° |
| 2026-05-07 11:30 | 53.08338 | 104.15330 | 15683 ft | 457 kts | 152° |
| 2026-05-07 11:30 | 53.05540 | 104.17716 | 15120 ft | 446 kts | 159° |
| 2026-05-07 11:31 | 53.02593 | 104.19028 | 14509 ft | 435 kts | 174° |
| 2026-05-07 11:31 | 52.99603 | 104.19215 | 13807 ft | 428 kts | 183° |
| 2026-05-07 11:31 | 52.96640 | 104.19170 | 13032 ft | 424 kts | 183° |
| 2026-05-07 11:31 | 52.93709 | 104.19096 | 12273 ft | 419 kts | 184° |
| 2026-05-07 11:32 | 52.87940 | 104.18856 | 10799 ft | 410 kts | 183° |
| 2026-05-07 11:32 | 52.85100 | 104.18769 | 10120 ft | 406 kts | 182° |
| 2026-05-07 11:32 | 52.82286 | 104.18709 | 9862 ft | 400 kts | 182° |
| 2026-05-07 11:33 | 52.79574 | 104.18664 | 9721 ft | 380 kts | 182° |
| 2026-05-07 11:33 | 52.77001 | 104.18624 | 9589 ft | 361 kts | 182° |
| 2026-05-07 11:33 | 52.74544 | 104.18583 | 9454 ft | 345 kts | 182° |
| 2026-05-07 11:33 | 52.72194 | 104.18545 | 9322 ft | 331 kts | 182° |
| 2026-05-07 11:34 | 52.69939 | 104.18509 | 9198 ft | 318 kts | 182° |
| 2026-05-07 11:34 | 52.67774 | 104.18470 | 9065 ft | 306 kts | 182° |
| 2026-05-07 11:34 | 52.65678 | 104.18425 | 8926 ft | 297 kts | 183° |
| 2026-05-07 11:34 | 52.63621 | 104.18380 | 8923 ft | 296 kts | 183° |
| 2026-05-07 11:35 | 52.61557 | 104.18332 | 8804 ft | 297 kts | 183° |
| 2026-05-07 11:35 | 52.59493 | 104.18284 | 8674 ft | 296 kts | 183° |
| 2026-05-07 11:35 | 52.57440 | 104.18237 | 8545 ft | 295 kts | 183° |
| 2026-05-07 11:35 | 52.55397 | 104.18192 | 8420 ft | 293 kts | 183° |
| 2026-05-07 11:36 | 52.53384 | 104.18154 | 8293 ft | 291 kts | 182° |
| 2026-05-07 11:36 | 52.51350 | 104.18121 | 7698 ft | 292 kts | 182° |
| 2026-05-07 11:36 | 52.49347 | 104.18089 | 7095 ft | 285 kts | 182° |
| 2026-05-07 11:36 | 52.47379 | 104.18056 | 6442 ft | 281 kts | 182° |
| 2026-05-07 11:37 | 52.45454 | 104.18019 | 5986 ft | 268 kts | 182° |
| 2026-05-07 11:37 | 52.43678 | 104.17870 | 5842 ft | 244 kts | 191° |
| 2026-05-07 11:37 | 52.42124 | 104.17164 | 5733 ft | 221 kts | 205° |
| 2026-05-07 11:37 | 52.40742 | 104.16167 | 5641 ft | 213 kts | 205° |
| 2026-05-07 11:38 | 52.39433 | 104.15236 | 5530 ft | 200 kts | 206° |
| 2026-05-07 11:38 | 52.38164 | 104.14337 | 5439 ft | 198 kts | 206° |
| 2026-05-07 11:38 | 52.36883 | 104.13526 | 5268 ft | 200 kts | 195° |
| 2026-05-07 11:38 | 52.35513 | 104.13413 | 5078 ft | 199 kts | 174° |
| 2026-05-07 11:39 | 52.34193 | 104.14138 | 4933 ft | 202 kts | 151° |
| 2026-05-07 11:39 | 52.33130 | 104.15628 | 4722 ft | 203 kts | 128° |
| 2026-05-07 11:39 | 52.32472 | 104.17655 | 4457 ft | 200 kts | 114° |
| 2026-05-07 11:39 | 52.31944 | 104.19677 | 4187 ft | 188 kts | 115° |
| 2026-05-07 11:40 | 52.31444 | 104.21583 | 3914 ft | 177 kts | 116° |
| 2026-05-07 11:40 | 52.30977 | 104.23357 | 3677 ft | 162 kts | 115° |
| 2026-05-07 11:40 | 52.30551 | 104.24975 | 3435 ft | 150 kts | 115° |
| 2026-05-07 11:40 | 52.30151 | 104.26487 | 3225 ft | 140 kts | 117° |
| 2026-05-07 11:41 | 52.29774 | 104.27915 | 3029 ft | 134 kts | 116° |
| 2026-05-07 11:41 | 52.29408 | 104.29297 | 2836 ft | 130 kts | 117° |
| 2026-05-07 11:41 | 52.29051 | 104.30647 | 2646 ft | 129 kts | 116° |
| 2026-05-07 11:41 | 52.28694 | 104.32001 | 2437 ft | 129 kts | 115° |
| 2026-05-07 11:42 | 52.28346 | 104.33321 | 2202 ft | 128 kts | 115° |
| 2026-05-07 11:42 | 52.27992 | 104.34663 | 2062 ft | 128 kts | 117° |
| 2026-05-07 11:42 | 52.27639 | 104.35999 | 1837 ft | 128 kts | 117° |
| 2026-05-07 11:42 | 52.27292 | 104.37303 | 1680 ft | 126 kts | 115° |
| 2026-05-07 11:43 | 52.26958 | 104.38566 | 1608 ft | 108 kts | 117° |
| 2026-05-07 11:43 | 52.26721 | 104.39447 | 1636 ft | 62 kts | 114° |
| 2026-05-07 11:43 | 52.26574 | 104.39993 | 1653 ft | 45 kts | 113° |
| 2026-05-07 11:43 | 52.26462 | 104.40409 | 1682 ft | 36 kts | 115° |
| 2026-05-07 11:44 | 52.26369 | 104.40760 | 1682 ft | 32 kts | 113° |
| 2026-05-07 11:44 | 52.26281 | 104.41092 | 1687 ft | 29 kts | 113° |
| 2026-05-07 11:44 | 52.26196 | 104.41296 | 1695 ft | 12 kts | 183° |
| 2026-05-07 11:44 | 52.26111 | 104.41242 | 1695 ft | 14 kts | 204° |
| 2026-05-07 11:45 | 52.26005 | 104.41156 | 1681 ft | 16 kts | 226° |
| 2026-05-07 11:45 | 52.26021 | 104.40968 | 1685 ft | 20 kts | 293° |
| 2026-05-07 11:45 | 52.26081 | 104.40737 | 1677 ft | 24 kts | 292° |
| 2026-05-07 11:45 | 52.26155 | 104.40456 | 1666 ft | 29 kts | 295° |
| 2026-05-07 11:46 | 52.26243 | 104.40132 | 1661 ft | 29 kts | 293° |
| 2026-05-07 11:46 | 52.26317 | 104.39855 | 1653 ft | 28 kts | 293° |
| 2026-05-07 11:46 | 52.26391 | 104.39574 | 1646 ft | 27 kts | 294° |
| 2026-05-07 11:46 | 52.26469 | 104.39282 | 1643 ft | 24 kts | 293° |
| 2026-05-07 11:47 | 52.26537 | 104.39023 | 1642 ft | 25 kts | 293° |
| 2026-05-07 11:47 | 52.26615 | 104.38730 | 1624 ft | 25 kts | 293° |
| 2026-05-07 11:47 | 52.26692 | 104.38444 | 1614 ft | 28 kts | 294° |
| 2026-05-07 11:47 | 52.26773 | 104.38137 | 1609 ft | 32 kts | 294° |
| 2026-05-07 11:48 | 52.26826 | 104.37939 | 1604 ft | 28 kts | 293° |
| 2026-05-07 11:48 | 52.26909 | 104.37628 | 1590 ft | 31 kts | 293° |
| 2026-05-07 11:48 | 52.26987 | 104.37332 | 1586 ft | 17 kts | 293° |
| 2026-05-07 11:48 | 52.26989 | 104.37136 | 1585 ft | 19 kts | 273° |
| 2026-05-07 11:49 | 52.27034 | 104.36932 | 1585 ft | 20 kts | 290° |
| 2026-05-07 11:49 | 52.27083 | 104.36714 | 1585 ft | 22 kts | 290° |
| 2026-05-07 11:49 | 52.27137 | 104.36478 | 1586 ft | 21 kts | 291° |
| 2026-05-07 11:49 | 52.27158 | 104.36386 | 1586 ft | 0 kts | 289° |
| 2026-05-07 11:50 | 52.27154 | 104.36403 | 1586 ft | 2 kts | 287° |
| 2026-05-07 11:50 | 52.27157 | 104.36426 | 1586 ft | 2 kts | 195° |
| 2026-05-07 11:50 | 52.27173 | 104.36434 | 1586 ft | 2 kts | 200° |
| 2026-05-07 11:50 | 52.27188 | 104.36444 | 1586 ft | 2 kts | 203° |
| 2026-05-07 11:54 | 52.27188 | 104.36445 | 1586 ft | 0 kts | 203° |